createdAt,value
2022-12-18T00:01:41.540Z,51.83
2022-12-18T00:04:08.069Z,51.07
2022-12-18T00:06:34.498Z,51.55
2022-12-18T00:09:00.834Z,50.13
2022-12-18T00:11:27.220Z,49.99
2022-12-18T00:13:53.609Z,50.44
2022-12-18T00:16:20.018Z,50.53
2022-12-18T00:18:46.398Z,50.80
2022-12-18T00:21:12.726Z,50.75
2022-12-18T00:23:39.456Z,50.79
2022-12-18T00:26:06.146Z,50.77
2022-12-18T00:28:32.520Z,51.06
2022-12-18T00:30:58.902Z,50.23
2022-12-18T00:33:25.244Z,50.71
2022-12-18T00:35:51.629Z,51.22
2022-12-18T00:38:18.036Z,50.68
2022-12-18T00:40:44.459Z,51.55
2022-12-18T00:43:10.801Z,53.04
2022-12-18T00:45:37.217Z,53.80
2022-12-18T00:48:03.623Z,53.45
2022-12-18T00:50:31.012Z,52.79
2022-12-18T00:52:57.488Z,53.32
2022-12-18T00:55:23.874Z,52.77
2022-12-18T00:57:50.223Z,53.15
2022-12-18T01:00:16.591Z,52.31
2022-12-18T01:02:43.163Z,52.34
2022-12-18T01:05:09.726Z,51.55
2022-12-18T01:07:36.127Z,50.94
2022-12-18T01:10:02.512Z,51.42
2022-12-18T01:12:28.908Z,50.64
2022-12-18T01:14:55.276Z,50.40
2022-12-18T01:17:21.666Z,50.54
2022-12-18T01:19:48.027Z,50.29
2022-12-18T01:22:14.379Z,49.66
2022-12-18T01:24:40.761Z,49.21
2022-12-18T01:27:07.108Z,49.50
2022-12-18T01:29:33.476Z,49.32
2022-12-18T01:31:59.920Z,48.90
2022-12-18T01:34:26.384Z,48.57
2022-12-18T01:36:52.764Z,48.34
2022-12-18T01:39:19.097Z,48.10
2022-12-18T01:41:45.434Z,48.34
2022-12-18T01:44:11.765Z,47.73
2022-12-18T01:46:38.141Z,47.97
2022-12-18T01:49:04.529Z,47.88
2022-12-18T01:51:30.918Z,47.87
2022-12-18T01:53:57.255Z,47.93
2022-12-18T01:56:23.591Z,47.37
2022-12-18T01:58:49.945Z,47.75
2022-12-18T02:01:16.464Z,47.34
2022-12-18T02:03:42.958Z,47.67
2022-12-18T02:06:09.367Z,48.04
2022-12-18T02:08:35.717Z,47.87
2022-12-18T02:11:02.078Z,47.92
2022-12-18T02:13:28.474Z,48.24
2022-12-18T02:15:54.862Z,48.06
2022-12-18T02:18:21.255Z,48.94
2022-12-18T02:20:47.638Z,48.75
2022-12-18T02:23:13.983Z,48.78
2022-12-18T02:25:40.320Z,48.44
2022-12-18T02:28:06.653Z,48.39
2022-12-18T02:30:33.032Z,49.10
2022-12-18T02:32:59.438Z,49.61
2022-12-18T02:35:25.813Z,51.23
2022-12-18T02:37:52.191Z,51.75
2022-12-18T02:40:18.589Z,51.75
2022-12-18T02:42:44.977Z,51.90
2022-12-18T02:45:11.377Z,51.90
2022-12-18T02:47:37.730Z,51.40
2022-12-18T02:50:04.065Z,50.42
2022-12-18T02:52:30.438Z,50.69
2022-12-18T02:54:56.827Z,50.19
2022-12-18T02:57:23.181Z,50.17
2022-12-18T02:59:49.525Z,50.98
2022-12-18T03:02:15.994Z,50.57
2022-12-18T03:04:42.519Z,49.76
2022-12-18T03:07:08.913Z,50.36
2022-12-18T03:09:35.254Z,50.99
2022-12-18T03:12:01.595Z,50.87
2022-12-18T03:14:27.948Z,51.13
2022-12-18T03:16:54.434Z,51.07
2022-12-18T03:19:20.870Z,50.63
2022-12-18T03:21:47.244Z,51.09
2022-12-18T03:24:13.600Z,51.97
2022-12-18T03:26:39.986Z,50.50
2022-12-18T03:29:06.333Z,50.12
2022-12-18T03:31:32.703Z,49.70
2022-12-18T03:33:59.118Z,50.21
2022-12-18T03:36:25.551Z,49.24
2022-12-18T03:38:51.942Z,49.31
2022-12-18T03:41:18.450Z,50.08
2022-12-18T03:43:44.824Z,49.19
2022-12-18T03:46:11.210Z,48.97
2022-12-18T03:48:37.582Z,49.30
2022-12-18T03:51:03.919Z,49.54
2022-12-18T03:53:30.256Z,49.58
2022-12-18T03:55:56.640Z,49.83
2022-12-18T03:58:22.996Z,49.10
2022-12-18T04:00:49.397Z,49.45
2022-12-18T04:03:15.861Z,50.20
2022-12-18T04:05:42.262Z,49.54
2022-12-18T04:08:08.644Z,48.97
2022-12-18T04:10:35.031Z,48.91
2022-12-18T04:13:01.436Z,48.82
2022-12-18T04:15:27.854Z,48.08
2022-12-18T04:17:54.242Z,48.63
2022-12-18T04:20:20.576Z,48.15
2022-12-18T04:22:46.947Z,48.31
2022-12-18T04:25:13.289Z,47.90
2022-12-18T04:27:39.620Z,48.17
2022-12-18T04:30:06.001Z,48.12
2022-12-18T04:32:32.349Z,47.24
2022-12-18T04:34:58.686Z,47.19
2022-12-18T04:37:25.064Z,48.33
2022-12-18T04:39:51.455Z,48.44
2022-12-18T04:42:17.868Z,48.30
2022-12-18T04:44:44.250Z,48.17
2022-12-18T04:47:10.621Z,48.24
2022-12-18T04:49:36.952Z,48.40
2022-12-18T04:52:03.287Z,48.16
2022-12-18T04:54:29.676Z,48.32
2022-12-18T04:56:56.055Z,47.89
2022-12-18T04:59:22.454Z,48.19
2022-12-18T05:01:49.916Z,47.72
2022-12-18T05:04:16.451Z,48.13
2022-12-18T05:06:43.100Z,48.04
2022-12-18T05:09:09.457Z,47.23
2022-12-18T05:11:36.078Z,47.55
2022-12-18T05:14:02.475Z,47.62
2022-12-18T05:16:28.974Z,48.31
2022-12-18T05:18:55.419Z,47.78
2022-12-18T05:21:21.775Z,47.68
2022-12-18T05:23:48.126Z,47.59
2022-12-18T05:26:14.506Z,47.63
2022-12-18T05:28:40.851Z,46.99
2022-12-18T05:31:07.334Z,48.10
2022-12-18T05:33:33.771Z,47.84
2022-12-18T05:36:00.160Z,47.21
2022-12-18T05:38:26.548Z,47.72
2022-12-18T05:40:52.942Z,47.70
2022-12-18T05:43:21.373Z,47.66
2022-12-18T05:45:48.089Z,47.17
2022-12-18T05:48:14.470Z,46.38
2022-12-18T05:50:40.828Z,47.17
2022-12-18T05:53:07.163Z,47.30
2022-12-18T05:55:33.527Z,47.27
2022-12-18T05:57:59.906Z,47.30
2022-12-18T06:00:26.253Z,47.08
2022-12-18T06:02:52.747Z,46.43
2022-12-18T06:05:19.278Z,46.97
2022-12-18T06:07:46.514Z,46.62
2022-12-18T06:10:12.865Z,46.43
2022-12-18T06:12:39.245Z,46.85
2022-12-18T06:15:05.803Z,47.20
2022-12-18T06:17:32.151Z,47.60
2022-12-18T06:19:58.529Z,47.14
2022-12-18T06:22:24.925Z,47.32
2022-12-18T06:24:51.285Z,47.35
2022-12-18T06:27:17.931Z,47.14
2022-12-18T06:29:44.492Z,46.38
2022-12-18T06:32:10.945Z,46.25
2022-12-18T06:34:37.348Z,46.74
2022-12-18T06:37:03.703Z,46.05
2022-12-18T06:39:30.086Z,46.42
2022-12-18T06:41:56.470Z,46.81
2022-12-18T06:44:22.945Z,46.30
2022-12-18T06:46:49.330Z,46.64
2022-12-18T06:49:15.692Z,47.16
2022-12-18T06:51:42.063Z,47.76
2022-12-18T06:54:08.394Z,47.99
2022-12-18T06:56:34.739Z,47.40
2022-12-18T06:59:01.086Z,47.64
2022-12-18T07:01:27.518Z,47.62
2022-12-18T07:03:53.956Z,47.99
2022-12-18T07:06:20.360Z,47.66
2022-12-18T07:08:46.751Z,47.90
2022-12-18T07:11:13.098Z,47.54
2022-12-18T07:13:39.858Z,48.13
2022-12-18T07:16:11.195Z,47.31
2022-12-18T07:18:41.526Z,46.88
2022-12-18T07:21:07.924Z,47.69
2022-12-18T07:23:34.280Z,47.48
2022-12-18T07:26:00.686Z,46.94
2022-12-18T07:28:27.074Z,48.12
2022-12-18T07:30:54.583Z,48.15
2022-12-18T07:33:22.587Z,47.49
2022-12-18T07:35:48.937Z,47.11
2022-12-18T07:38:15.326Z,47.99
2022-12-18T07:40:41.701Z,47.28
2022-12-18T07:43:08.043Z,46.46
2022-12-18T07:45:34.436Z,46.77
2022-12-18T07:48:00.825Z,46.15
2022-12-18T07:50:27.163Z,46.18
2022-12-18T07:52:53.499Z,46.41
2022-12-18T07:55:19.886Z,46.00
2022-12-18T07:57:52.549Z,46.15
2022-12-18T08:00:20.664Z,46.13
2022-12-18T08:02:47.869Z,45.75
2022-12-18T08:05:15.067Z,46.71
2022-12-18T08:07:41.417Z,46.19
2022-12-18T08:10:07.806Z,45.74
2022-12-18T08:12:34.190Z,46.47
2022-12-18T08:15:00.738Z,46.51
2022-12-18T08:17:27.131Z,46.12
2022-12-18T08:19:53.517Z,46.67
2022-12-18T08:22:19.926Z,46.26
2022-12-18T08:24:46.299Z,46.35
2022-12-18T08:27:29.006Z,46.28
2022-12-18T08:29:55.984Z,46.57
2022-12-18T08:32:22.438Z,47.25
2022-12-18T08:34:48.847Z,46.75
2022-12-18T08:37:15.246Z,46.44
2022-12-18T08:39:41.608Z,46.48
2022-12-18T08:42:10.216Z,45.84
2022-12-18T08:44:36.877Z,45.86
2022-12-18T08:47:03.212Z,46.24
2022-12-18T08:49:29.595Z,45.75
2022-12-18T08:51:55.946Z,45.74
2022-12-18T08:54:22.283Z,46.10
2022-12-18T08:56:48.626Z,46.60
2022-12-18T08:59:19.489Z,46.31
2022-12-18T09:01:46.289Z,47.25
2022-12-18T09:04:12.727Z,47.55
2022-12-18T09:06:39.129Z,47.59
2022-12-18T09:09:05.962Z,46.98
2022-12-18T09:11:32.331Z,47.72
2022-12-18T09:13:58.741Z,47.50
2022-12-18T09:16:30.349Z,46.93
2022-12-18T09:18:58.555Z,47.04
2022-12-18T09:21:24.917Z,47.28
2022-12-18T09:23:51.310Z,46.99
2022-12-18T09:26:17.690Z,46.91
2022-12-18T09:28:44.174Z,46.37
2022-12-18T09:31:10.744Z,46.76
2022-12-18T09:33:37.119Z,45.90
2022-12-18T09:36:03.627Z,45.44
2022-12-18T09:38:30.141Z,46.47
2022-12-18T09:40:56.530Z,46.25
2022-12-18T09:43:22.879Z,46.35
2022-12-18T09:45:49.278Z,45.69
2022-12-18T09:48:15.697Z,45.99
2022-12-18T09:50:42.088Z,45.31
2022-12-18T09:53:08.477Z,45.77
2022-12-18T09:55:37.511Z,45.15
2022-12-18T09:58:04.149Z,45.16
2022-12-18T10:00:30.506Z,45.01
2022-12-18T10:02:56.985Z,45.69
2022-12-18T10:05:23.464Z,43.62
2022-12-18T10:07:49.818Z,44.50
2022-12-18T10:10:16.190Z,44.77
2022-12-18T10:12:42.545Z,45.03
2022-12-18T10:15:08.938Z,45.17
2022-12-18T10:17:35.307Z,45.00
2022-12-18T10:20:01.643Z,44.12
2022-12-18T10:22:28.032Z,44.29
2022-12-18T10:24:55.253Z,44.02
2022-12-18T10:27:22.100Z,44.17
2022-12-18T10:29:48.501Z,44.18
2022-12-18T10:32:14.849Z,44.23
2022-12-18T10:34:41.407Z,44.22
2022-12-18T10:37:07.766Z,44.34
2022-12-18T10:39:34.166Z,44.13
2022-12-18T10:42:00.518Z,44.00
2022-12-18T10:44:26.860Z,44.08
2022-12-18T10:46:53.320Z,43.40
2022-12-18T10:49:19.780Z,43.82
2022-12-18T10:51:46.177Z,43.87
2022-12-18T10:54:12.561Z,43.25
2022-12-18T10:56:38.913Z,42.99
2022-12-18T10:59:05.903Z,43.59
2022-12-18T11:01:32.515Z,43.88
2022-12-18T11:04:02.056Z,42.96
2022-12-18T11:06:29.170Z,43.33
2022-12-18T11:08:55.549Z,43.17
2022-12-18T11:11:21.907Z,43.48
2022-12-18T11:13:48.250Z,43.56
2022-12-18T11:16:14.687Z,43.68
2022-12-18T11:18:41.325Z,43.79
2022-12-18T11:21:07.947Z,43.27
2022-12-18T11:23:34.281Z,43.17
2022-12-18T11:26:00.669Z,43.95
2022-12-18T11:28:27.019Z,43.81
2022-12-18T11:30:53.439Z,42.82
2022-12-18T11:33:19.849Z,43.30
2022-12-18T11:35:46.197Z,42.80
2022-12-18T11:38:12.535Z,43.69
2022-12-18T11:40:41.382Z,43.06
2022-12-18T11:43:08.050Z,43.07
2022-12-18T11:45:34.556Z,44.51
2022-12-18T11:48:01.867Z,45.05
2022-12-18T11:50:28.207Z,44.48
2022-12-18T11:52:59.284Z,43.63
2022-12-18T11:55:27.928Z,44.13
2022-12-18T11:57:54.286Z,43.80
2022-12-18T12:00:20.692Z,43.87
2022-12-18T12:02:47.263Z,44.48
2022-12-18T12:05:13.723Z,44.18
2022-12-18T12:07:40.115Z,44.46
2022-12-18T12:10:06.471Z,44.33
2022-12-18T12:12:32.812Z,44.59
2022-12-18T12:14:59.217Z,44.40
2022-12-18T12:17:25.607Z,44.42
2022-12-18T12:19:52.005Z,44.52
2022-12-18T12:22:18.363Z,44.97
2022-12-18T12:24:44.705Z,44.85
2022-12-18T12:27:11.090Z,44.28
2022-12-18T12:29:37.629Z,44.21
2022-12-18T12:32:04.083Z,44.82
2022-12-18T12:34:30.457Z,44.92
2022-12-18T12:36:56.846Z,45.19
2022-12-18T12:39:23.238Z,44.91
2022-12-18T12:41:49.608Z,44.58
2022-12-18T12:44:15.946Z,44.73
2022-12-18T12:46:42.792Z,45.17
2022-12-18T12:49:09.131Z,44.85
2022-12-18T12:51:35.543Z,44.67
2022-12-18T12:54:02.075Z,44.81
2022-12-18T12:56:28.458Z,44.74
2022-12-18T12:58:54.863Z,44.40
2022-12-18T13:01:24.173Z,45.05
2022-12-18T13:03:50.769Z,45.19
2022-12-18T13:06:17.850Z,44.88
2022-12-18T13:08:44.626Z,45.00
2022-12-18T13:11:10.957Z,45.39
2022-12-18T13:13:38.706Z,46.39
2022-12-18T13:16:05.273Z,45.56
2022-12-18T13:18:32.887Z,45.27
2022-12-18T13:21:02.904Z,44.41
2022-12-18T13:23:29.880Z,44.80
2022-12-18T13:25:56.293Z,46.14
2022-12-18T13:28:22.927Z,46.28
2022-12-18T13:30:49.313Z,45.66
2022-12-18T13:33:17.111Z,45.22
2022-12-18T13:35:43.926Z,44.93
2022-12-18T13:38:10.352Z,45.26
2022-12-18T13:40:36.880Z,44.66
2022-12-18T13:43:03.263Z,45.44
2022-12-18T13:45:29.666Z,45.56
2022-12-18T13:47:56.196Z,45.46
2022-12-18T13:50:22.550Z,45.17
2022-12-18T13:52:48.979Z,45.08
2022-12-18T13:55:15.371Z,44.81
2022-12-18T13:57:42.138Z,45.33
2022-12-18T14:00:08.657Z,44.89
2022-12-18T14:02:35.643Z,45.16
2022-12-18T14:05:02.315Z,45.55
2022-12-18T14:07:31.160Z,45.74
2022-12-18T14:12:47.237Z,46.69
2022-12-18T14:15:14.550Z,46.12
2022-12-18T14:17:41.350Z,46.45
2022-12-18T14:20:07.741Z,46.06
2022-12-18T14:22:34.094Z,45.71
2022-12-18T14:25:00.462Z,45.81
2022-12-18T14:27:26.855Z,45.10
2022-12-18T14:29:53.227Z,45.91
2022-12-18T14:32:19.639Z,46.42
2022-12-18T14:34:46.024Z,46.83
2022-12-18T14:37:12.371Z,46.03
2022-12-18T14:39:38.714Z,45.87
2022-12-18T14:42:05.092Z,46.41
2022-12-18T14:44:44.258Z,46.83
2022-12-18T14:47:16.908Z,45.84
2022-12-18T14:49:43.643Z,46.38
2022-12-18T14:52:09.989Z,46.13
2022-12-18T14:54:38.001Z,46.15
2022-12-18T14:57:04.371Z,46.62
2022-12-18T14:59:30.755Z,45.97
2022-12-18T15:01:57.174Z,46.68
2022-12-18T15:04:23.700Z,46.04
2022-12-18T15:06:50.056Z,46.28
2022-12-18T15:09:16.405Z,45.89
2022-12-18T15:11:42.940Z,46.02
2022-12-18T15:14:09.576Z,46.96
2022-12-18T15:16:37.378Z,46.63
2022-12-18T15:19:03.905Z,47.12
2022-12-18T15:21:30.303Z,46.36
2022-12-18T15:23:56.690Z,46.04
2022-12-18T15:26:23.079Z,46.42
2022-12-18T15:28:49.456Z,45.97
2022-12-18T15:31:17.423Z,46.58
2022-12-18T15:33:44.528Z,45.99
2022-12-18T15:36:11.061Z,45.99
2022-12-18T15:38:37.474Z,46.26
2022-12-18T15:41:03.819Z,46.06
2022-12-18T15:43:30.203Z,46.05
2022-12-18T15:45:56.571Z,45.88
2022-12-18T15:48:22.931Z,46.05
2022-12-18T15:50:49.326Z,46.45
2022-12-18T15:53:15.670Z,45.82
2022-12-18T15:55:42.045Z,45.79
2022-12-18T15:58:08.437Z,46.63
2022-12-18T16:00:34.833Z,46.37
2022-12-18T16:03:01.318Z,46.07
2022-12-18T16:05:27.927Z,46.43
2022-12-18T16:07:54.321Z,46.75
2022-12-18T16:10:20.663Z,46.68
2022-12-18T16:12:47.063Z,45.94
2022-12-18T16:15:13.444Z,46.78
2022-12-18T16:17:39.790Z,47.10
2022-12-18T16:20:06.126Z,47.01
2022-12-18T16:22:32.474Z,46.29
2022-12-18T16:24:58.808Z,46.65
2022-12-18T16:27:25.144Z,47.29
2022-12-18T16:29:51.531Z,47.46
2022-12-18T16:32:17.907Z,48.41
2022-12-18T16:34:44.242Z,48.21
2022-12-18T16:37:10.587Z,47.46
2022-12-18T16:39:36.924Z,47.39
2022-12-18T16:42:05.613Z,46.61
2022-12-18T16:44:32.466Z,47.33
2022-12-18T16:46:58.854Z,47.82
2022-12-18T16:49:25.258Z,47.33
2022-12-18T16:51:51.652Z,47.46
2022-12-18T16:54:19.685Z,46.79
2022-12-18T16:56:46.360Z,47.50
2022-12-18T16:59:12.737Z,47.72
2022-12-18T17:01:39.222Z,46.69
2022-12-18T17:04:05.701Z,47.02
2022-12-18T17:06:32.105Z,46.35
2022-12-18T17:08:58.465Z,46.16
2022-12-18T17:11:24.803Z,46.92
2022-12-18T17:13:51.521Z,46.52
2022-12-18T17:16:17.930Z,46.97
2022-12-18T17:18:44.358Z,46.12
2022-12-18T17:21:10.751Z,46.03
2022-12-18T17:23:37.174Z,45.87
2022-12-18T17:26:03.625Z,46.28
2022-12-18T17:28:29.983Z,47.18
2022-12-18T17:30:56.339Z,47.55
2022-12-18T17:33:22.719Z,47.88
2022-12-18T17:35:49.108Z,47.22
2022-12-18T17:38:15.502Z,48.01
2022-12-18T17:40:46.261Z,47.77
2022-12-18T17:43:13.019Z,47.26
2022-12-18T17:45:39.385Z,47.77
2022-12-18T17:48:05.769Z,48.08
2022-12-18T17:50:32.115Z,48.55
2022-12-18T17:52:58.490Z,47.81
2022-12-18T17:55:24.877Z,48.11
2022-12-18T17:57:51.224Z,47.31
2022-12-18T18:00:17.595Z,47.49
2022-12-18T18:02:44.076Z,47.24
2022-12-18T18:05:10.599Z,47.47
2022-12-18T18:07:38.546Z,47.19
2022-12-18T18:10:04.998Z,47.36
2022-12-18T18:12:31.382Z,47.80
2022-12-18T18:14:57.738Z,47.86
2022-12-18T18:17:24.274Z,48.09
2022-12-18T18:19:50.615Z,48.63
2022-12-18T18:22:16.981Z,48.16
2022-12-18T18:24:45.075Z,47.61
2022-12-18T18:27:11.435Z,47.60
2022-12-18T18:29:37.964Z,47.64
2022-12-18T18:32:04.473Z,47.29
2022-12-18T18:34:30.925Z,46.87
2022-12-18T18:36:57.279Z,46.76
2022-12-18T18:39:23.654Z,47.55
2022-12-18T18:41:50.039Z,47.24
2022-12-18T18:44:16.393Z,47.12
2022-12-18T18:46:42.782Z,47.73
2022-12-18T18:49:09.128Z,46.94
2022-12-18T18:51:35.576Z,47.49
2022-12-18T18:54:01.985Z,46.84
2022-12-18T18:56:56.494Z,47.17
2022-12-18T18:59:14.705Z,47.92
2022-12-18T19:01:41.286Z,47.58
2022-12-18T19:04:08.898Z,47.66
2022-12-18T19:06:35.389Z,47.04
2022-12-18T19:09:02.611Z,46.70
2022-12-18T19:11:34.536Z,47.04
2022-12-18T19:14:02.824Z,46.96
2022-12-18T19:16:29.262Z,47.76
2022-12-18T19:18:59.996Z,47.62
2022-12-18T19:21:28.309Z,47.31
2022-12-18T19:23:57.518Z,46.81
2022-12-18T19:26:27.855Z,46.78
2022-12-18T19:28:54.752Z,46.97
2022-12-18T19:31:25.444Z,47.84
2022-12-18T19:33:53.553Z,46.62
2022-12-18T19:36:19.908Z,47.04
2022-12-18T19:38:46.405Z,47.34
2022-12-18T19:41:13.028Z,47.01
2022-12-18T19:43:40.303Z,47.41
2022-12-18T19:46:06.692Z,47.57
2022-12-18T19:48:33.098Z,46.83
2022-12-18T19:50:59.443Z,47.37
2022-12-18T19:53:25.824Z,46.79
2022-12-18T19:55:52.235Z,47.65
2022-12-18T19:58:18.630Z,47.79
2022-12-18T20:00:47.797Z,47.30
2022-12-18T20:03:24.279Z,47.48
2022-12-18T20:05:53.611Z,46.99
2022-12-18T20:08:19.991Z,48.04
2022-12-18T20:10:46.331Z,47.40
2022-12-18T20:13:13.256Z,47.42
2022-12-18T20:15:45.117Z,48.58
2022-12-18T20:18:11.921Z,47.48
2022-12-18T20:20:38.361Z,47.43
2022-12-18T20:23:04.861Z,47.98
2022-12-18T20:25:31.361Z,48.11
2022-12-18T20:27:57.737Z,48.41
2022-12-18T20:30:24.137Z,47.96
2022-12-18T20:32:50.500Z,47.95
2022-12-18T20:35:16.919Z,47.33
2022-12-18T20:37:48.732Z,47.98
2022-12-18T20:40:17.161Z,48.07
2022-12-18T20:42:43.558Z,47.90
2022-12-18T20:45:09.911Z,48.10
2022-12-18T20:47:36.286Z,48.90
2022-12-18T20:50:02.681Z,47.38
2022-12-18T20:52:29.032Z,47.93
2022-12-18T20:54:55.385Z,47.40
2022-12-18T20:57:23.414Z,47.73
2022-12-18T20:59:49.790Z,47.39
2022-12-18T21:02:16.296Z,47.84
2022-12-18T21:04:42.792Z,48.14
2022-12-18T21:07:09.154Z,47.48
2022-12-18T21:09:38.037Z,48.10
2022-12-18T21:12:04.985Z,47.42
2022-12-18T21:14:31.511Z,47.70
2022-12-18T21:16:57.935Z,47.50
2022-12-18T21:19:24.306Z,46.98
2022-12-18T21:21:51.370Z,48.05
2022-12-18T21:24:17.906Z,47.97
2022-12-18T21:26:46.106Z,48.00
2022-12-18T21:29:12.757Z,47.75
2022-12-18T21:31:39.359Z,47.75
2022-12-18T21:34:05.686Z,47.72
2022-12-18T21:36:32.024Z,47.73
2022-12-18T21:38:58.542Z,47.78
2022-12-18T21:41:25.046Z,48.53
2022-12-18T21:43:51.708Z,48.23
2022-12-18T21:46:18.115Z,47.85
2022-12-18T21:48:44.519Z,48.10
2022-12-18T21:51:10.917Z,47.47
2022-12-18T21:53:37.261Z,48.30
2022-12-18T21:56:03.642Z,48.56
2022-12-18T21:58:30.035Z,48.57
2022-12-18T22:00:56.421Z,48.25
2022-12-18T22:03:22.897Z,48.17
2022-12-18T22:05:51.980Z,47.33
2022-12-18T22:08:35.435Z,48.37
2022-12-18T22:11:05.882Z,48.46
2022-12-18T22:13:32.256Z,48.60
2022-12-18T22:15:58.696Z,48.85
2022-12-18T22:18:25.146Z,48.22
2022-12-18T22:20:51.495Z,48.48
2022-12-18T22:23:17.825Z,48.47
2022-12-18T22:25:44.159Z,48.35
2022-12-18T22:28:10.546Z,48.29
2022-12-18T22:30:36.899Z,47.86
2022-12-18T22:33:03.235Z,48.68
2022-12-18T22:35:29.571Z,48.14
2022-12-18T22:37:55.923Z,48.10
2022-12-18T22:40:24.684Z,49.03
2022-12-18T22:42:52.886Z,48.76
2022-12-18T22:45:19.279Z,48.48
2022-12-18T22:47:45.654Z,48.56
2022-12-18T22:50:12.025Z,48.64
2022-12-18T22:52:38.420Z,48.39
2022-12-18T22:55:04.812Z,48.50
2022-12-18T22:57:32.861Z,49.00
2022-12-18T23:00:00.755Z,48.98
2022-12-18T23:02:27.200Z,49.04
2022-12-18T23:04:53.631Z,48.83
2022-12-18T23:07:20.018Z,48.56
2022-12-18T23:09:46.390Z,49.00
2022-12-18T23:12:14.741Z,47.97
2022-12-18T23:14:41.096Z,47.33
2022-12-18T23:17:07.443Z,47.68
2022-12-18T23:19:33.826Z,48.91
2022-12-18T23:22:00.174Z,48.96
2022-12-18T23:24:26.537Z,49.61
2022-12-18T23:26:52.911Z,49.16
2022-12-18T23:29:19.309Z,50.45
2022-12-18T23:31:45.747Z,50.02
2022-12-18T23:34:12.192Z,50.90
2022-12-18T23:36:45.515Z,50.04
2022-12-18T23:39:12.482Z,49.35
2022-12-18T23:41:47.214Z,48.98
2022-12-18T23:44:13.547Z,48.99
2022-12-18T23:46:39.953Z,48.87
2022-12-18T23:49:06.633Z,48.77
2022-12-18T23:51:33.087Z,48.30
2022-12-18T23:54:01.222Z,48.10
2022-12-18T23:56:27.600Z,48.45
2022-12-18T23:58:53.972Z,48.73
